Fort Hancock, Texas
Current Conditions -  °F | °C
As of 7:43 PM on Thursday 18 Dec 2014 (Local Time) from MMCS Reporting Station
Scattered Clouds Scattered Clouds  
Wind Chill: 41°   Ceiling: Unl
Heat Index: 46°   Visibility: 10mi
Dew Point: 43°   Wind: 12mph
Humidity: 87%   Direction: 340°NNW
Pressure: 30.08"   Gusts: NA
Location:  31.3°N, 105.85°W
Report Text: MMCS 190243Z 34010KT 10SM SCT090 08/06 A3008 RMK SLP174 52023 903 8/070
Loading
Personal Weather Stations






























Interactive Weather Map New forecast layout! Learn more

10-Day Weather Forecast

Advertisements
Track Severe Weather on mobile